Terminal Aerodrome Forecast
Issued by NWS Bismarck, ND

Home | Current Version | Previous Version | Graphics & Text | Print | Product List | Glossary On
Versions: 1 2 3 4 5 6 7 8 9 10 11 12 13 14 15 16 17 18 19
000
FTUS43 KBIS 220921 AAA
TAFISN
TAF AMD
KISN 220921Z 2209/2306 02014KT P6SM VCSH SCT040 BKN080
     FM221300 02014KT P6SM VCSH SCT040 BKN100
     FM221700 02016KT P6SM VCSH BKN080 BKN140
     FM230000 01013KT P6SM OVC035
     FM230300 36007KT P6SM OVC035=

USA.gov is the U.S. government's official web portal to all federal, state and local government web resources and services.